map of NOP home
NOP - Airport
Location
City:  Sinop, Turkey
Name:Sinop Airport
ICAO:LTCM
IATA:NOP

Details
Type:Airport (Aerodrome, Airfield)
Use:Public/Civil
Latitude:4200'57"N (42.015833)
Longitude:3503'59"E (35.066389)
Elevation:3524 ft (1074 m)
Variation:6.39E (WMM2015v2 magnetic declination)
0.10 annual change
Runways:1
Longest:5420 × 98 ft (1652 × 30 m), paved

Time
Time Zone:UTC+3
Local Time:

Weather
METAR:LTCM 041250Z VRB03KT CAVOK 10/06 Q1023

Related Locations
Nearby:
Farthest:RVV: 11171 mi / 17977 km
Raivavae, Tubuai Islands, Austral Islands, PF

Find:

   beyond  
but within

Other Information
Maps:
NOTAMs:
Links:
Sources:

  
  • flag of Turkey
  

Sectional Chart

Flight Planning
at skyvector.com

Satellite Image

Google Maps Satellite view

 

Copyright © 2004-2019 Karl L. Swartz. All rights reserved.
The Great Circle Mapper name and logo are trademarks of the Great Circle Mapper.
All other trademarks mentioned herein belong to their respective owners.
Please see credits for attibutions and further copyright information.

  Follow gcmap on Facebook Follow gcmap on Twitter GCmap on LinkedIn

hCard Microformat

Geo Microformat